sensor_id;sensor_type;location;lat;lon;timestamp;pressure;altitude;pressure_sealevel;temperature;humidity
9289;BME280;4683;50.864;12.086;2022-09-11T00:00:04;98969.09;;;15.30;100.00
9289;BME280;4683;50.864;12.086;2022-09-11T00:02:33;98959.25;;;15.30;100.00
9289;BME280;4683;50.864;12.086;2022-09-11T00:05:01;98961.91;;;15.30;100.00
9289;BME280;4683;50.864;12.086;2022-09-11T00:07:29;98962.38;;;15.27;100.00
9289;BME280;4683;50.864;12.086;2022-09-11T00:09:59;98958.91;;;15.20;100.00
9289;BME280;4683;50.864;12.086;2022-09-11T00:12:27;98962.44;;;15.14;100.00
9289;BME280;4683;50.864;12.086;2022-09-11T00:14:56;98961.63;;;15.07;100.00
9289;BME280;4683;50.864;12.086;2022-09-11T00:17:24;98957.13;;;15.07;100.00
9289;BME280;4683;50.864;12.086;2022-09-11T00:19:52;98953.09;;;15.05;100.00
9289;BME280;4683;50.864;12.086;2022-09-11T00:22:21;98960.44;;;15.03;100.00
9289;BME280;4683;50.864;12.086;2022-09-11T00:24:49;98958.63;;;14.96;100.00
9289;BME280;4683;50.864;12.086;2022-09-11T00:27:19;98964.19;;;14.88;100.00
9289;BME280;4683;50.864;12.086;2022-09-11T00:29:47;98953.59;;;14.82;100.00
9289;BME280;4683;50.864;12.086;2022-09-11T00:32:15;98959.72;;;14.82;100.00
9289;BME280;4683;50.864;12.086;2022-09-11T00:34:44;98959.09;;;14.80;100.00
9289;BME280;4683;50.864;12.086;2022-09-11T00:37:15;98950.75;;;14.77;100.00
9289;BME280;4683;50.864;12.086;2022-09-11T00:39:50;98955.66;;;14.73;100.00
9289;BME280;4683;50.864;12.086;2022-09-11T00:43:00;98966.16;;;14.55;100.00
9289;BME280;4683;50.864;12.086;2022-09-11T00:45:29;98948.75;;;14.65;100.00
9289;BME280;4683;50.864;12.086;2022-09-11T00:47:58;98954.47;;;14.62;100.00
9289;BME280;4683;50.864;12.086;2022-09-11T00:50:29;98952.88;;;14.55;100.00
9289;BME280;4683;50.864;12.086;2022-09-11T00:53:01;98946.72;;;14.47;100.00
9289;BME280;4683;50.864;12.086;2022-09-11T00:55:32;98949.59;;;14.46;100.00
9289;BME280;4683;50.864;12.086;2022-09-11T00:58:08;98943.47;;;14.45;100.00
9289;BME280;4683;50.864;12.086;2022-09-11T01:00:38;98955.72;;;14.46;100.00
9289;BME280;4683;50.864;12.086;2022-09-11T01:03:10;98956.94;;;14.44;100.00
9289;BME280;4683;50.864;12.086;2022-09-11T01:05:40;98960.63;;;14.43;100.00
9289;BME280;4683;50.864;12.086;2022-09-11T01:08:09;98955.53;;;14.41;100.00
9289;BME280;4683;50.864;12.086;2022-09-11T01:10:50;98957.78;;;14.38;100.00
9289;BME280;4683;50.864;12.086;2022-09-11T01:13:32;98954.91;;;14.39;100.00
9289;BME280;4683;50.864;12.086;2022-09-11T01:16:12;98952.06;;;14.41;100.00
9289;BME280;4683;50.864;12.086;2022-09-11T01:18:52;98953.69;;;14.42;100.00
9289;BME280;4683;50.864;12.086;2022-09-11T01:22:03;98959.22;;;14.34;100.00
9289;BME280;4683;50.864;12.086;2022-09-11T01:24:54;98955.16;;;14.31;100.00
9289;BME280;4683;50.864;12.086;2022-09-11T01:27:41;98957.16;;;14.29;100.00
9289;BME280;4683;50.864;12.086;2022-09-11T01:30:13;98969.63;;;14.35;100.00
9289;BME280;4683;50.864;12.086;2022-09-11T01:33:11;98951.69;;;14.24;100.00
9289;BME280;4683;50.864;12.086;2022-09-11T01:35:54;98952.50;;;14.25;100.00
9289;BME280;4683;50.864;12.086;2022-09-11T01:38:31;98951.88;;;14.29;100.00
9289;BME280;4683;50.864;12.086;2022-09-11T01:41:05;98949.63;;;14.33;100.00
9289;BME280;4683;50.864;12.086;2022-09-11T01:43:40;98949.00;;;14.37;100.00
9289;BME280;4683;50.864;12.086;2022-09-11T01:46:12;98951.44;;;14.45;100.00
9289;BME280;4683;50.864;12.086;2022-09-11T01:48:46;98951.63;;;14.44;100.00
9289;BME280;4683;50.864;12.086;2022-09-11T01:51:21;98955.13;;;14.44;100.00
9289;BME280;4683;50.864;12.086;2022-09-11T01:53:51;98951.66;;;14.51;100.00
9289;BME280;4683;50.864;12.086;2022-09-11T01:56:23;98948.59;;;14.54;100.00
9289;BME280;4683;50.864;12.086;2022-09-11T01:58:59;98952.44;;;14.58;100.00
9289;BME280;4683;50.864;12.086;2022-09-11T02:01:32;98961.44;;;14.57;100.00
9289;BME280;4683;50.864;12.086;2022-09-11T02:04:04;98955.31;;;14.56;100.00
9289;BME280;4683;50.864;12.086;2022-09-11T02:06:39;98952.06;;;14.54;100.00
9289;BME280;4683;50.864;12.086;2022-09-11T02:09:13;98945.09;;;14.60;100.00
9289;BME280;4683;50.864;12.086;2022-09-11T02:11:44;98952.44;;;14.64;100.00
9289;BME280;4683;50.864;12.086;2022-09-11T02:14:22;98934.44;;;14.66;100.00
9289;BME280;4683;50.864;12.086;2022-09-11T02:16:59;98940.94;;;14.77;100.00
9289;BME280;4683;50.864;12.086;2022-09-11T02:19:31;98942.16;;;14.81;100.00
9289;BME280;4683;50.864;12.086;2022-09-11T02:21:59;98949.50;;;14.79;100.00
9289;BME280;4683;50.864;12.086;2022-09-11T02:24:28;98950.75;;;14.77;100.00
9289;BME280;4683;50.864;12.086;2022-09-11T02:27:00;98948.72;;;14.72;100.00
9289;BME280;4683;50.864;12.086;2022-09-11T02:29:31;98942.78;;;14.77;100.00
9289;BME280;4683;50.864;12.086;2022-09-11T02:31:59;98944.19;;;14.79;100.00
9289;BME280;4683;50.864;12.086;2022-09-11T02:34:34;98947.47;;;14.81;100.00
9289;BME280;4683;50.864;12.086;2022-09-11T02:37:21;98951.75;;;14.82;100.00
9289;BME280;4683;50.864;12.086;2022-09-11T02:40:18;98951.72;;;14.89;100.00
9289;BME280;4683;50.864;12.086;2022-09-11T02:43:09;98951.47;;;14.97;100.00
9289;BME280;4683;50.864;12.086;2022-09-11T02:45:52;98960.03;;;15.06;100.00
9289;BME280;4683;50.864;12.086;2022-09-11T02:48:42;98960.81;;;15.13;100.00
9289;BME280;4683;50.864;12.086;2022-09-11T02:51:23;98967.53;;;15.15;100.00
9289;BME280;4683;50.864;12.086;2022-09-11T02:53:59;98964.84;;;15.22;100.00
9289;BME280;4683;50.864;12.086;2022-09-11T02:56:39;98965.66;;;15.22;100.00
9289;BME280;4683;50.864;12.086;2022-09-11T02:59:14;98959.47;;;15.29;100.00
9289;BME280;4683;50.864;12.086;2022-09-11T03:01:48;98968.06;;;15.31;100.00
9289;BME280;4683;50.864;12.086;2022-09-11T03:04:19;98962.94;;;15.36;100.00
9289;BME280;4683;50.864;12.086;2022-09-11T03:06:49;98966.41;;;15.36;100.00
9289;BME280;4683;50.864;12.086;2022-09-11T03:09:18;98963.09;;;15.41;100.00
9289;BME280;4683;50.864;12.086;2022-09-11T03:11:47;98964.50;;;15.43;100.00
9289;BME280;4683;50.864;12.086;2022-09-11T03:14:16;98963.03;;;15.47;100.00
9289;BME280;4683;50.864;12.086;2022-09-11T03:16:44;98959.97;;;15.51;100.00
9289;BME280;4683;50.864;12.086;2022-09-11T03:19:13;98969.16;;;15.55;100.00
9289;BME280;4683;50.864;12.086;2022-09-11T03:21:42;98965.31;;;15.44;100.00
9289;BME280;4683;50.864;12.086;2022-09-11T03:24:10;98973.25;;;15.51;100.00
9289;BME280;4683;50.864;12.086;2022-09-11T03:26:39;98972.00;;;15.53;100.00
9289;BME280;4683;50.864;12.086;2022-09-11T03:29:07;98974.88;;;15.52;100.00
9289;BME280;4683;50.864;12.086;2022-09-11T03:31:35;98967.31;;;15.48;100.00
9289;BME280;4683;50.864;12.086;2022-09-11T03:34:04;98965.94;;;15.46;100.00
9289;BME280;4683;50.864;12.086;2022-09-11T03:36:34;98971.25;;;15.46;100.00
9289;BME280;4683;50.864;12.086;2022-09-11T03:39:03;98961.97;;;15.55;100.00
9289;BME280;4683;50.864;12.086;2022-09-11T03:41:31;98975.88;;;15.64;100.00
9289;BME280;4683;50.864;12.086;2022-09-11T03:44:00;98971.63;;;15.50;100.00
9289;BME280;4683;50.864;12.086;2022-09-11T03:46:28;98964.13;;;15.40;100.00
9289;BME280;4683;50.864;12.086;2022-09-11T03:48:56;98959.00;;;15.38;100.00
9289;BME280;4683;50.864;12.086;2022-09-11T03:51:25;98956.34;;;15.38;100.00
9289;BME280;4683;50.864;12.086;2022-09-11T03:53:54;98953.31;;;15.35;100.00
9289;BME280;4683;50.864;12.086;2022-09-11T03:56:22;98947.25;;;15.21;100.00
9289;BME280;4683;50.864;12.086;2022-09-11T03:58:54;98945.69;;;15.13;100.00
9289;BME280;4683;50.864;12.086;2022-09-11T04:01:24;98945.22;;;15.23;100.00
9289;BME280;4683;50.864;12.086;2022-09-11T04:03:52;98948.63;;;15.30;100.00
9289;BME280;4683;50.864;12.086;2022-09-11T04:06:21;98956.59;;;15.30;100.00
9289;BME280;4683;50.864;12.086;2022-09-11T04:08:49;98948.47;;;15.25;100.00
9289;BME280;4683;50.864;12.086;2022-09-11T04:11:18;98947.31;;;15.14;100.00
9289;BME280;4683;50.864;12.086;2022-09-11T04:13:47;98944.34;;;15.29;100.00
9289;BME280;4683;50.864;12.086;2022-09-11T04:16:17;98959.78;;;15.45;100.00
9289;BME280;4683;50.864;12.086;2022-09-11T04:18:46;98969.97;;;15.55;100.00
9289;BME280;4683;50.864;12.086;2022-09-11T04:21:16;98974.84;;;15.58;100.00
9289;BME280;4683;50.864;12.086;2022-09-11T04:23:50;98982.22;;;15.56;100.00
9289;BME280;4683;50.864;12.086;2022-09-11T04:26:22;98989.16;;;15.57;100.00
9289;BME280;4683;50.864;12.086;2022-09-11T04:28:51;98985.69;;;15.57;100.00
9289;BME280;4683;50.864;12.086;2022-09-11T04:31:20;98990.16;;;15.63;100.00
9289;BME280;4683;50.864;12.086;2022-09-11T04:33:49;98987.91;;;15.66;100.00
9289;BME280;4683;50.864;12.086;2022-09-11T04:36:19;98994.41;;;15.70;100.00
9289;BME280;4683;50.864;12.086;2022-09-11T04:38:55;98995.84;;;15.73;100.00
9289;BME280;4683;50.864;12.086;2022-09-11T04:41:25;98984.66;;;15.64;100.00
9289;BME280;4683;50.864;12.086;2022-09-11T04:43:54;98993.66;;;15.57;100.00
9289;BME280;4683;50.864;12.086;2022-09-11T04:46:23;98985.94;;;15.48;100.00
9289;BME280;4683;50.864;12.086;2022-09-11T04:48:54;98982.34;;;15.36;100.00
9289;BME280;4683;50.864;12.086;2022-09-11T04:51:26;98976.25;;;15.29;100.00
9289;BME280;4683;50.864;12.086;2022-09-11T04:53:57;98974.84;;;15.27;100.00
9289;BME280;4683;50.864;12.086;2022-09-11T04:56:29;98977.88;;;15.30;100.00
9289;BME280;4683;50.864;12.086;2022-09-11T04:59:01;98973.69;;;15.47;100.00
9289;BME280;4683;50.864;12.086;2022-09-11T05:01:31;98988.13;;;15.65;100.00
9289;BME280;4683;50.864;12.086;2022-09-11T05:04:01;98992.16;;;15.74;100.00
9289;BME280;4683;50.864;12.086;2022-09-11T05:06:30;99005.03;;;15.77;100.00
9289;BME280;4683;50.864;12.086;2022-09-11T05:09:01;99001.56;;;15.77;100.00
9289;BME280;4683;50.864;12.086;2022-09-11T05:11:33;98997.22;;;15.82;100.00
9289;BME280;4683;50.864;12.086;2022-09-11T05:14:02;99005.09;;;15.95;100.00
9289;BME280;4683;50.864;12.086;2022-09-11T05:16:31;99014.78;;;15.83;100.00
9289;BME280;4683;50.864;12.086;2022-09-11T05:19:00;99004.00;;;15.78;100.00
9289;BME280;4683;50.864;12.086;2022-09-11T05:21:30;99003.44;;;15.69;100.00
9289;BME280;4683;50.864;12.086;2022-09-11T05:24:00;99011.25;;;15.64;100.00
9289;BME280;4683;50.864;12.086;2022-09-11T05:26:32;99004.88;;;15.72;100.00
9289;BME280;4683;50.864;12.086;2022-09-11T05:29:03;98994.38;;;15.77;100.00
9289;BME280;4683;50.864;12.086;2022-09-11T05:31:32;99007.44;;;15.85;100.00
9289;BME280;4683;50.864;12.086;2022-09-11T05:34:01;99006.13;;;15.94;100.00
9289;BME280;4683;50.864;12.086;2022-09-11T05:36:30;99012.19;;;16.02;100.00
9289;BME280;4683;50.864;12.086;2022-09-11T05:38:59;99021.94;;;16.14;100.00
9289;BME280;4683;50.864;12.086;2022-09-11T05:41:27;99019.31;;;16.33;100.00
9289;BME280;4683;50.864;12.086;2022-09-11T05:43:57;99036.38;;;16.50;100.00
9289;BME280;4683;50.864;12.086;2022-09-11T05:46:26;99042.06;;;16.54;100.00
9289;BME280;4683;50.864;12.086;2022-09-11T05:48:56;99047.25;;;16.67;100.00
9289;BME280;4683;50.864;12.086;2022-09-11T05:51:31;99049.47;;;16.70;100.00
9289;BME280;4683;50.864;12.086;2022-09-11T05:54:06;99055.06;;;16.62;100.00
9289;BME280;4683;50.864;12.086;2022-09-11T05:56:40;99052.72;;;16.54;100.00
9289;BME280;4683;50.864;12.086;2022-09-11T05:59:13;99042.53;;;16.44;100.00
9289;BME280;4683;50.864;12.086;2022-09-11T06:01:44;99042.19;;;16.40;100.00
9289;BME280;4683;50.864;12.086;2022-09-11T06:04:22;99044.19;;;16.45;100.00
9289;BME280;4683;50.864;12.086;2022-09-11T06:06:53;99048.78;;;16.56;100.00
9289;BME280;4683;50.864;12.086;2022-09-11T06:09:25;99058.78;;;16.61;100.00
9289;BME280;4683;50.864;12.086;2022-09-11T06:11:54;99058.28;;;16.70;100.00
9289;BME280;4683;50.864;12.086;2022-09-11T06:14:31;99072.75;;;16.81;100.00
9289;BME280;4683;50.864;12.086;2022-09-11T06:17:17;99076.41;;;17.05;100.00
9289;BME280;4683;50.864;12.086;2022-09-11T06:19:52;99081.63;;;17.12;100.00
9289;BME280;4683;50.864;12.086;2022-09-11T06:22:23;99091.44;;;17.18;100.00
9289;BME280;4683;50.864;12.086;2022-09-11T06:25:10;99094.38;;;17.10;100.00
9289;BME280;4683;50.864;12.086;2022-09-11T06:27:41;99099.63;;;17.16;100.00
9289;BME280;4683;50.864;12.086;2022-09-11T06:30:19;99109.13;;;17.31;100.00
9289;BME280;4683;50.864;12.086;2022-09-11T06:32:51;99116.47;;;17.35;100.00
9289;BME280;4683;50.864;12.086;2022-09-11T06:35:22;99108.22;;;17.37;100.00
9289;BME280;4683;50.864;12.086;2022-09-11T06:37:57;99115.13;;;17.44;100.00
9289;BME280;4683;50.864;12.086;2022-09-11T06:40:36;99112.47;;;17.26;100.00
9289;BME280;4683;50.864;12.086;2022-09-11T06:43:08;99121.34;;;17.38;100.00
9289;BME280;4683;50.864;12.086;2022-09-11T06:45:52;99127.28;;;17.40;100.00
9289;BME280;4683;50.864;12.086;2022-09-11T06:48:24;99137.19;;;17.33;100.00
9289;BME280;4683;50.864;12.086;2022-09-11T06:51:02;99124.00;;;17.38;100.00
9289;BME280;4683;50.864;12.086;2022-09-11T06:53:36;99130.97;;;17.39;100.00
9289;BME280;4683;50.864;12.086;2022-09-11T06:56:11;99139.13;;;17.44;100.00
9289;BME280;4683;50.864;12.086;2022-09-11T06:58:43;99136.66;;;17.43;100.00
9289;BME280;4683;50.864;12.086;2022-09-11T07:01:22;99125.81;;;17.26;100.00
9289;BME280;4683;50.864;12.086;2022-09-11T07:03:55;99130.81;;;17.34;100.00
9289;BME280;4683;50.864;12.086;2022-09-11T07:06:30;99132.00;;;17.38;100.00
9289;BME280;4683;50.864;12.086;2022-09-11T07:09:10;99141.34;;;17.29;100.00
9289;BME280;4683;50.864;12.086;2022-09-11T07:11:44;99122.66;;;17.11;100.00
9289;BME280;4683;50.864;12.086;2022-09-11T07:14:12;99116.53;;;17.10;100.00
9289;BME280;4683;50.864;12.086;2022-09-11T07:16:42;99125.63;;;17.21;100.00
9289;BME280;4683;50.864;12.086;2022-09-11T07:19:11;99126.63;;;17.27;100.00
9289;BME280;4683;50.864;12.086;2022-09-11T07:21:40;99117.47;;;16.97;100.00
9289;BME280;4683;50.864;12.086;2022-09-11T07:24:12;99112.88;;;16.86;100.00
9289;BME280;4683;50.864;12.086;2022-09-11T07:26:41;99105.63;;;16.68;100.00
9289;BME280;4683;50.864;12.086;2022-09-11T07:29:11;99099.34;;;16.63;100.00
9289;BME280;4683;50.864;12.086;2022-09-11T07:31:41;99095.25;;;16.60;100.00
9289;BME280;4683;50.864;12.086;2022-09-11T07:34:09;99106.56;;;16.56;100.00
9289;BME280;4683;50.864;12.086;2022-09-11T07:36:38;99089.66;;;16.43;100.00
9289;BME280;4683;50.864;12.086;2022-09-11T07:39:07;99092.38;;;16.37;100.00
9289;BME280;4683;50.864;12.086;2022-09-11T07:41:35;99086.03;;;16.38;100.00
9289;BME280;4683;50.864;12.086;2022-09-11T07:44:04;99110.84;;;16.57;100.00
9289;BME280;4683;50.864;12.086;2022-09-11T07:46:34;99109.53;;;16.66;100.00
9289;BME280;4683;50.864;12.086;2022-09-11T07:49:12;99105.09;;;16.60;100.00
9289;BME280;4683;50.864;12.086;2022-09-11T07:51:41;99103.56;;;16.70;100.00
9289;BME280;4683;50.864;12.086;2022-09-11T07:54:10;99105.13;;;16.53;100.00
9289;BME280;4683;50.864;12.086;2022-09-11T07:56:46;99092.81;;;16.59;100.00
9289;BME280;4683;50.864;12.086;2022-09-11T07:59:15;99092.38;;;16.62;100.00
9289;BME280;4683;50.864;12.086;2022-09-11T08:01:49;99090.16;;;16.59;100.00
9289;BME280;4683;50.864;12.086;2022-09-11T08:04:24;99084.09;;;16.70;100.00
9289;BME280;4683;50.864;12.086;2022-09-11T08:07:01;99092.09;;;16.95;100.00
9289;BME280;4683;50.864;12.086;2022-09-11T08:09:29;99100.09;;;16.95;100.00
9289;BME280;4683;50.864;12.086;2022-09-11T08:12:01;99106.81;;;17.16;100.00
9289;BME280;4683;50.864;12.086;2022-09-11T08:14:34;99108.63;;;17.22;100.00
9289;BME280;4683;50.864;12.086;2022-09-11T08:17:07;99112.25;;;17.28;100.00
9289;BME280;4683;50.864;12.086;2022-09-11T08:19:42;99122.22;;;17.50;100.00
9289;BME280;4683;50.864;12.086;2022-09-11T08:22:23;99134.50;;;17.52;100.00
9289;BME280;4683;50.864;12.086;2022-09-11T08:24:52;99142.66;;;17.57;100.00
9289;BME280;4683;50.864;12.086;2022-09-11T08:27:29;99145.78;;;17.72;100.00
9289;BME280;4683;50.864;12.086;2022-09-11T08:30:13;99158.00;;;17.80;100.00
9289;BME280;4683;50.864;12.086;2022-09-11T08:32:45;99155.25;;;17.68;100.00
9289;BME280;4683;50.864;12.086;2022-09-11T08:35:16;99154.88;;;17.64;100.00
9289;BME280;4683;50.864;12.086;2022-09-11T08:37:47;99155.78;;;17.58;100.00
9289;BME280;4683;50.864;12.086;2022-09-11T08:40:20;99165.03;;;17.56;100.00
9289;BME280;4683;50.864;12.086;2022-09-11T08:42:58;99167.44;;;17.45;100.00
9289;BME280;4683;50.864;12.086;2022-09-11T08:45:33;99164.66;;;17.34;100.00
9289;BME280;4683;50.864;12.086;2022-09-11T08:48:16;99174.28;;;17.35;100.00
9289;BME280;4683;50.864;12.086;2022-09-11T08:51:51;99169.72;;;17.23;100.00
9289;BME280;4683;50.864;12.086;2022-09-11T08:54:45;99168.28;;;17.39;100.00
9289;BME280;4683;50.864;12.086;2022-09-11T08:57:27;99176.09;;;17.41;100.00
9289;BME280;4683;50.864;12.086;2022-09-11T09:00:17;99182.81;;;17.25;100.00
9289;BME280;4683;50.864;12.086;2022-09-11T09:06:33;99179.28;;;17.49;100.00
9289;BME280;4683;50.864;12.086;2022-09-11T09:09:22;99191.81;;;17.67;100.00
9289;BME280;4683;50.864;12.086;2022-09-11T09:11:58;99193.00;;;17.71;100.00
9289;BME280;4683;50.864;12.086;2022-09-11T09:18:08;99193.88;;;17.84;100.00
9289;BME280;4683;50.864;12.086;2022-09-11T09:20:58;99202.69;;;17.84;100.00
9289;BME280;4683;50.864;12.086;2022-09-11T09:23:38;99204.34;;;17.67;100.00
9289;BME280;4683;50.864;12.086;2022-09-11T09:26:17;99205.28;;;17.72;100.00
9289;BME280;4683;50.864;12.086;2022-09-11T09:28:50;99212.91;;;18.06;100.00
9289;BME280;4683;50.864;12.086;2022-09-11T09:31:22;99221.13;;;18.22;100.00
9289;BME280;4683;50.864;12.086;2022-09-11T09:33:59;99231.88;;;18.46;100.00
9289;BME280;4683;50.864;12.086;2022-09-11T09:36:32;99238.16;;;18.51;100.00
9289;BME280;4683;50.864;12.086;2022-09-11T09:39:09;99241.00;;;18.38;100.00
9289;BME280;4683;50.864;12.086;2022-09-11T09:42:22;99231.88;;;18.16;100.00
9289;BME280;4683;50.864;12.086;2022-09-11T09:45:17;99232.50;;;17.99;100.00
9289;BME280;4683;50.864;12.086;2022-09-11T09:48:07;99242.13;;;18.00;100.00
9289;BME280;4683;50.864;12.086;2022-09-11T09:50:39;99236.63;;;18.14;100.00
9289;BME280;4683;50.864;12.086;2022-09-11T09:53:17;99240.75;;;18.28;100.00
9289;BME280;4683;50.864;12.086;2022-09-11T09:55:48;99236.66;;;18.56;100.00
9289;BME280;4683;50.864;12.086;2022-09-11T09:58:29;99254.41;;;18.80;100.00
9289;BME280;4683;50.864;12.086;2022-09-11T10:01:02;99258.78;;;18.63;100.00
9289;BME280;4683;50.864;12.086;2022-09-11T10:03:34;99257.72;;;18.64;100.00
9289;BME280;4683;50.864;12.086;2022-09-11T10:06:05;99254.59;;;18.67;100.00
9289;BME280;4683;50.864;12.086;2022-09-11T10:08:37;99261.28;;;18.88;100.00
9289;BME280;4683;50.864;12.086;2022-09-11T10:11:07;99269.59;;;19.10;100.00
9289;BME280;4683;50.864;12.086;2022-09-11T10:13:41;99283.28;;;19.01;100.00
9289;BME280;4683;50.864;12.086;2022-09-11T10:16:20;99279.91;;;18.94;100.00
9289;BME280;4683;50.864;12.086;2022-09-11T10:18:51;99286.69;;;19.09;100.00
9289;BME280;4683;50.864;12.086;2022-09-11T10:21:27;99282.84;;;19.16;100.00
9289;BME280;4683;50.864;12.086;2022-09-11T10:24:23;99291.91;;;19.04;100.00
9289;BME280;4683;50.864;12.086;2022-09-11T10:26:53;99287.16;;;19.17;100.00
9289;BME280;4683;50.864;12.086;2022-09-11T10:29:27;99285.19;;;19.13;100.00
9289;BME280;4683;50.864;12.086;2022-09-11T10:31:58;99277.38;;;19.23;100.00
9289;BME280;4683;50.864;12.086;2022-09-11T10:34:35;99297.41;;;19.32;100.00
9289;BME280;4683;50.864;12.086;2022-09-11T10:37:22;99294.72;;;19.32;100.00
9289;BME280;4683;50.864;12.086;2022-09-11T10:39:51;99292.41;;;19.71;100.00
9289;BME280;4683;50.864;12.086;2022-09-11T10:42:25;99308.03;;;19.62;100.00
9289;BME280;4683;50.864;12.086;2022-09-11T10:45:05;99315.56;;;19.89;100.00
9289;BME280;4683;50.864;12.086;2022-09-11T10:47:37;99323.94;;;20.04;100.00
9289;BME280;4683;50.864;12.086;2022-09-11T10:50:26;99323.13;;;20.04;100.00
9289;BME280;4683;50.864;12.086;2022-09-11T10:53:15;99341.06;;;20.43;100.00
9289;BME280;4683;50.864;12.086;2022-09-11T10:55:55;99345.88;;;20.82;100.00
9289;BME280;4683;50.864;12.086;2022-09-11T10:58:32;99360.63;;;20.84;100.00
9289;BME280;4683;50.864;12.086;2022-09-11T11:01:05;99353.28;;;20.91;100.00
9289;BME280;4683;50.864;12.086;2022-09-11T11:03:33;99345.34;;;20.85;100.00
9289;BME280;4683;50.864;12.086;2022-09-11T11:06:23;99359.31;;;20.98;100.00
9289;BME280;4683;50.864;12.086;2022-09-11T11:09:15;99356.94;;;20.85;100.00
9289;BME280;4683;50.864;12.086;2022-09-11T11:12:03;99343.56;;;20.73;100.00
9289;BME280;4683;50.864;12.086;2022-09-11T11:18:30;99363.81;;;20.29;100.00
9289;BME280;4683;50.864;12.086;2022-09-11T11:21:12;99352.66;;;20.20;100.00
9289;BME280;4683;50.864;12.086;2022-09-11T11:23:56;99361.09;;;20.00;100.00
9289;BME280;4683;50.864;12.086;2022-09-11T11:26:46;99362.50;;;19.91;100.00
9289;BME280;4683;50.864;12.086;2022-09-11T11:29:33;99371.09;;;19.93;100.00
9289;BME280;4683;50.864;12.086;2022-09-11T11:32:23;99372.25;;;19.97;100.00
9289;BME280;4683;50.864;12.086;2022-09-11T11:35:18;99362.38;;;19.74;100.00
9289;BME280;4683;50.864;12.086;2022-09-11T11:37:49;99356.44;;;19.96;100.00
9289;BME280;4683;50.864;12.086;2022-09-11T11:40:27;99368.41;;;20.17;100.00
9289;BME280;4683;50.864;12.086;2022-09-11T11:42:59;99368.97;;;20.19;100.00
9289;BME280;4683;50.864;12.086;2022-09-11T11:45:35;99366.03;;;20.32;100.00
9289;BME280;4683;50.864;12.086;2022-09-11T11:48:07;99374.28;;;20.42;100.00
9289;BME280;4683;50.864;12.086;2022-09-11T11:50:43;99363.53;;;19.79;100.00
9289;BME280;4683;50.864;12.086;2022-09-11T11:53:23;99359.34;;;19.83;100.00
9289;BME280;4683;50.864;12.086;2022-09-11T11:56:05;99372.81;;;20.23;100.00
9289;BME280;4683;50.864;12.086;2022-09-11T11:58:45;99371.72;;;20.47;100.00
9289;BME280;4683;50.864;12.086;2022-09-11T12:01:23;99378.44;;;20.62;100.00
9289;BME280;4683;50.864;12.086;2022-09-11T12:04:00;99378.75;;;20.48;100.00
9289;BME280;4683;50.864;12.086;2022-09-11T12:06:34;99381.69;;;19.88;100.00
9289;BME280;4683;50.864;12.086;2022-09-11T12:09:04;99378.06;;;20.18;100.00
9289;BME280;4683;50.864;12.086;2022-09-11T12:11:35;99388.41;;;20.49;100.00
9289;BME280;4683;50.864;12.086;2022-09-11T12:14:05;99388.84;;;20.35;100.00
9289;BME280;4683;50.864;12.086;2022-09-11T12:16:34;99390.06;;;20.15;100.00
9289;BME280;4683;50.864;12.086;2022-09-11T12:19:12;99393.44;;;20.22;100.00
9289;BME280;4683;50.864;12.086;2022-09-11T12:22:09;99398.44;;;20.31;100.00
9289;BME280;4683;50.864;12.086;2022-09-11T12:25:38;99408.31;;;20.54;100.00
9289;BME280;4683;50.864;12.086;2022-09-11T12:28:21;99415.84;;;20.68;100.00
9289;BME280;4683;50.864;12.086;2022-09-11T12:31:10;99411.56;;;20.56;100.00
9289;BME280;4683;50.864;12.086;2022-09-11T12:33:55;99403.41;;;20.39;100.00
9289;BME280;4683;50.864;12.086;2022-09-11T12:36:45;99408.22;;;20.37;100.00
9289;BME280;4683;50.864;12.086;2022-09-11T12:39:27;99406.69;;;20.29;100.00
9289;BME280;4683;50.864;12.086;2022-09-11T12:42:44;99424.06;;;20.26;100.00
9289;BME280;4683;50.864;12.086;2022-09-11T12:45:33;99420.56;;;20.02;100.00
9289;BME280;4683;50.864;12.086;2022-09-11T12:48:08;99420.47;;;19.97;100.00
9289;BME280;4683;50.864;12.086;2022-09-11T12:50:49;99412.22;;;19.99;100.00
9289;BME280;4683;50.864;12.086;2022-09-11T12:53:23;99414.06;;;19.87;100.00
9289;BME280;4683;50.864;12.086;2022-09-11T12:55:58;99428.38;;;19.69;100.00
9289;BME280;4683;50.864;12.086;2022-09-11T12:58:37;99424.13;;;19.49;100.00
9289;BME280;4683;50.864;12.086;2022-09-11T13:01:20;99423.63;;;19.52;100.00
9289;BME280;4683;50.864;12.086;2022-09-11T13:04:00;99418.81;;;19.73;100.00
9289;BME280;4683;50.864;12.086;2022-09-11T13:06:41;99433.59;;;19.75;100.00
9289;BME280;4683;50.864;12.086;2022-09-11T13:09:20;99427.31;;;19.70;100.00
9289;BME280;4683;50.864;12.086;2022-09-11T13:11:55;99424.66;;;19.93;100.00
9289;BME280;4683;50.864;12.086;2022-09-11T13:14:49;99428.03;;;19.77;100.00
9289;BME280;4683;50.864;12.086;2022-09-11T13:17:26;99430.03;;;19.51;100.00
9289;BME280;4683;50.864;12.086;2022-09-11T13:20:23;99420.22;;;19.64;100.00
9289;BME280;4683;50.864;12.086;2022-09-11T13:23:15;99428.06;;;20.12;100.00
9289;BME280;4683;50.864;12.086;2022-09-11T13:26:24;99425.81;;;20.44;100.00
9289;BME280;4683;50.864;12.086;2022-09-11T13:29:02;99426.16;;;20.48;100.00
9289;BME280;4683;50.864;12.086;2022-09-11T13:31:36;99430.75;;;20.76;100.00
9289;BME280;4683;50.864;12.086;2022-09-11T13:34:15;99429.06;;;20.58;100.00
9289;BME280;4683;50.864;12.086;2022-09-11T13:36:45;99430.22;;;20.50;100.00
9289;BME280;4683;50.864;12.086;2022-09-11T13:39:19;99427.88;;;20.42;100.00
9289;BME280;4683;50.864;12.086;2022-09-11T13:41:49;99422.53;;;20.54;100.00
9289;BME280;4683;50.864;12.086;2022-09-11T13:44:43;99430.19;;;20.74;100.00
9289;BME280;4683;50.864;12.086;2022-09-11T13:47:19;99436.69;;;21.07;100.00
9289;BME280;4683;50.864;12.086;2022-09-11T13:49:50;99433.06;;;21.13;100.00
9289;BME280;4683;50.864;12.086;2022-09-11T13:52:21;99435.19;;;21.39;100.00
9289;BME280;4683;50.864;12.086;2022-09-11T13:54:53;99430.09;;;21.26;100.00